Time;durP1;ratioP1;P1;durP2;ratioP2;P2;SDS_P1;SDS_P2;PMS_P1;PMS_P2;Temp;Humidity;BMP_temperature;BMP_pressure;BME280_temperature;BME280_humidity;BME280_pressure;Samples;Min_cycle;Max_cycle;Signal;HPM_P1;HPM_P2
2022/01/10 00:01:41;;;;;;;8.13;3.67;;;-1.10;93.80;;;;;;5035855;28;20056;-68
2022/01/10 00:04:07;;;;;;;10.57;4.10;;;-1.00;93.00;;;;;;5016786;28;20057;-68
2022/01/10 00:06:35;;;;;;;13.57;4.63;;;-0.90;92.90;;;;;;5037579;28;20075;-67
2022/01/10 00:09:01;;;;;;;10.52;5.03;;;-0.90;93.00;;;;;;5022745;28;20061;-69
2022/01/10 00:11:27;;;;;;;13.40;5.70;;;-1.00;93.00;;;;;;5036741;28;20449;-69
2022/01/10 00:13:52;;;;;;;14.75;6.18;;;-1.00;92.40;;;;;;5037862;28;20037;-69
2022/01/10 00:16:18;;;;;;;12.18;5.15;;;-1.00;92.50;;;;;;5020692;28;20048;-68
2022/01/10 00:18:43;;;;;;;10.85;4.82;;;-1.00;92.30;;;;;;5037100;28;20034;-69
2022/01/10 00:21:09;;;;;;;15.23;5.68;;;-1.00;91.90;;;;;;5037997;28;20333;-69
2022/01/10 00:23:35;;;;;;;14.68;6.80;;;-0.90;91.80;;;;;;5038791;28;20441;-69
2022/01/10 00:26:01;;;;;;;10.70;5.45;;;-0.90;91.50;;;;;;5036841;28;20100;-69
2022/01/10 00:28:27;;;;;;;14.23;6.53;;;-0.80;91.20;;;;;;5035475;28;20030;-69
2022/01/10 00:30:52;;;;;;;14.63;6.45;;;-0.80;91.60;;;;;;5037480;28;20037;-69
2022/01/10 00:33:18;;;;;;;14.32;7.20;;;-0.80;91.80;;;;;;5036856;28;20079;-69
2022/01/10 00:35:43;;;;;;;12.27;6.80;;;-0.80;92.10;;;;;;5037910;28;20032;-69
2022/01/10 00:38:09;;;;;;;13.30;6.68;;;-0.80;91.90;;;;;;5037755;28;20096;-68
2022/01/10 00:40:35;;;;;;;9.20;5.00;;;-0.80;92.10;;;;;;5036907;28;20025;-69
2022/01/10 00:43:00;;;;;;;9.60;4.95;;;-0.80;92.10;;;;;;5037353;28;20414;-68
2022/01/10 00:45:28;;;;;;;10.77;4.93;;;-0.80;92.40;;;;;;5037765;28;20033;-69
2022/01/10 00:47:58;;;;;;;9.50;4.55;;;-0.70;92.50;;;;;;5036870;28;20033;-69
2022/01/10 00:50:25;;;;;;;10.48;4.25;;;-0.70;92.20;;;;;;5036371;28;20017;-69
2022/01/10 00:52:51;;;;;;;9.43;4.10;;;-0.60;92.50;;;;;;5034580;28;20370;-69
2022/01/10 00:55:17;;;;;;;9.40;4.40;;;-0.60;92.80;;;;;;5036498;28;20036;-68
2022/01/10 00:57:43;;;;;;;13.52;4.90;;;-0.60;92.80;;;;;;5036517;28;20037;-69
2022/01/10 01:00:11;;;;;;;12.50;4.80;;;-0.50;93.10;;;;;;5035640;28;20025;-69
2022/01/10 01:02:38;;;;;;;10.77;4.55;;;-0.50;93.20;;;;;;5030552;28;20076;-69
2022/01/10 01:05:06;;;;;;;9.98;4.47;;;-0.50;93.40;;;;;;5036365;28;20152;-68
2022/01/10 01:07:33;;;;;;;9.98;4.40;;;-0.40;93.70;;;;;;5033130;28;20347;-69
2022/01/10 01:10:20;;;;;;;12.30;5.15;;;-0.40;94.10;;;;;;5036468;28;20330;-69
2022/01/10 01:13:03;;;;;;;10.50;3.95;;;-0.40;94.50;;;;;;5035145;28;20029;-69
2022/01/10 01:15:34;;;;;;;7.35;3.88;;;-0.30;94.80;;;;;;5036002;28;20334;-70
2022/01/10 01:25:56;;;;;;;14.15;5.53;;;-0.20;95.80;;;;;;5036696;28;20055;-68
2022/01/10 01:28:21;;;;;;;6.72;3.53;;;-0.10;95.80;;;;;;5036411;28;20100;-68
2022/01/10 01:30:47;;;;;;;7.20;3.60;;;-0.10;95.70;;;;;;5035857;28;20029;-67
2022/01/10 01:33:15;;;;;;;10.00;3.58;;;-0.10;96.70;;;;;;5034924;28;20032;-68
2022/01/10 01:35:47;;;;;;;13.38;5.90;;;-0.20;96.70;;;;;;5036098;28;20064;-69
2022/01/10 01:38:13;;;;;;;8.25;4.15;;;-0.20;96.40;;;;;;5035577;28;20033;-70
2022/01/10 01:40:45;;;;;;;10.50;4.32;;;-0.20;96.40;;;;;;5034922;28;20072;-69
2022/01/10 01:43:13;;;;;;;12.65;4.07;;;-0.10;96.20;;;;;;5034800;28;20021;-70
2022/01/10 01:45:42;;;;;;;8.48;3.88;;;-0.10;96.40;;;;;;5035678;28;20033;-69
2022/01/10 01:48:08;;;;;;;6.90;3.25;;;-0.10;96.80;;;;;;5034920;28;20489;-69
2022/01/10 01:50:35;;;;;;;11.55;5.28;;;-0.10;97.00;;;;;;5036652;28;20066;-69
2022/01/10 01:53:01;;;;;;;8.75;3.92;;;-0.20;97.10;;;;;;5035607;28;20444;-70
2022/01/10 01:55:27;;;;;;;9.60;3.97;;;-0.10;96.60;;;;;;5034843;28;20342;-68
2022/01/10 01:57:53;;;;;;;9.27;3.53;;;-0.10;97.20;;;;;;5033379;28;20037;-68
2022/01/10 02:00:22;;;;;;;7.47;3.50;;;-0.10;97.00;;;;;;5032226;28;20041;-69
2022/01/10 02:02:51;;;;;;;8.75;3.78;;;-0.10;97.30;;;;;;5034810;28;20428;-69
2022/01/10 02:05:17;;;;;;;7.97;3.70;;;-0.10;97.20;;;;;;5035252;28;20022;-68
2022/01/10 02:07:43;;;;;;;10.50;4.78;;;-0.10;97.40;;;;;;5035927;28;20029;-69
2022/01/10 02:10:09;;;;;;;7.97;3.92;;;-0.10;97.30;;;;;;5035365;28;20032;-68
2022/01/10 02:12:38;;;;;;;7.97;3.20;;;-0.10;97.30;;;;;;5033496;28;20105;-69
2022/01/10 02:15:06;;;;;;;8.45;3.30;;;0.00;97.10;;;;;;5034364;28;20033;-68
2022/01/10 02:17:37;;;;;;;7.93;4.18;;;0.00;97.40;;;;;;5032829;28;20056;-70
2022/01/10 02:20:07;;;;;;;7.07;2.60;;;0.00;97.30;;;;;;5034398;28;20022;-69
2022/01/10 02:22:36;;;;;;;10.65;2.97;;;0.10;97.20;;;;;;5034234;28;20041;-69
2022/01/10 02:25:02;;;;;;;11.02;3.72;;;0.10;97.20;;;;;;5033522;28;20095;-70
2022/01/10 02:27:28;;;;;;;6.75;2.30;;;0.20;97.00;;;;;;5034890;28;20430;-69
2022/01/10 02:29:54;;;;;;;9.45;2.80;;;0.30;97.40;;;;;;5035298;28;20040;-69
2022/01/10 02:32:21;;;;;;;7.68;3.22;;;0.30;97.90;;;;;;5034024;28;20531;-69
2022/01/10 02:34:46;;;;;;;10.90;3.55;;;0.30;97.90;;;;;;5035179;28;20038;-70
2022/01/10 02:37:30;;;;;;;11.05;4.05;;;0.30;98.00;;;;;;5032549;28;20033;-69
2022/01/10 02:39:58;;;;;;;7.22;3.10;;;0.30;98.00;;;;;;5034283;28;20095;-70
2022/01/10 02:42:24;;;;;;;8.00;3.22;;;0.20;97.80;;;;;;5033198;28;20056;-69
2022/01/10 02:44:49;;;;;;;10.93;3.33;;;0.20;97.80;;;;;;5034603;28;20053;-69
2022/01/10 02:47:15;;;;;;;11.18;3.00;;;0.20;97.60;;;;;;5031153;28;20025;-70
2022/01/10 02:49:41;;;;;;;8.05;2.92;;;0.10;97.60;;;;;;5033290;28;20024;-69
2022/01/10 02:52:06;;;;;;;9.52;2.85;;;0.10;97.60;;;;;;5034385;28;20441;-69
2022/01/10 02:54:32;;;;;;;8.48;3.03;;;0.10;97.20;;;;;;5035320;28;20109;-69
2022/01/10 02:56:58;;;;;;;9.32;3.40;;;0.10;97.20;;;;;;5034143;28;20064;-69
2022/01/10 02:59:27;;;;;;;8.35;3.33;;;0.10;97.20;;;;;;5035249;28;20029;-70
2022/01/10 03:01:54;;;;;;;9.00;2.80;;;0.10;96.90;;;;;;5034587;28;20021;-70
2022/01/10 03:04:20;;;;;;;8.15;2.80;;;0.10;96.70;;;;;;5033034;28;20086;-70
2022/01/10 03:06:48;;;;;;;7.05;2.60;;;0.10;96.80;;;;;;5034739;28;20025;-69
2022/01/10 03:09:14;;;;;;;7.32;2.92;;;0.10;96.50;;;;;;5020658;28;20029;-70
2022/01/10 03:11:41;;;;;;;11.20;2.55;;;0.20;96.20;;;;;;5017008;28;20048;-70
2022/01/10 03:14:07;;;;;;;10.07;3.28;;;0.30;95.90;;;;;;5034556;28;20161;-69
2022/01/10 03:16:33;;;;;;;11.10;3.00;;;0.30;96.50;;;;;;5032761;28;20132;-69
2022/01/10 03:18:58;;;;;;;9.32;2.90;;;0.40;96.70;;;;;;5031396;28;20037;-71
2022/01/10 03:21:24;;;;;;;7.07;2.58;;;0.40;97.30;;;;;;5033766;28;20048;-69
2022/01/10 03:23:51;;;;;;;6.40;2.53;;;0.40;97.20;;;;;;5035014;28;20037;-69
2022/01/10 03:26:18;;;;;;;7.35;2.40;;;0.40;97.20;;;;;;5034305;28;20045;-69
2022/01/10 03:28:47;;;;;;;6.47;2.50;;;0.40;96.90;;;;;;5029421;28;20064;-69
2022/01/10 03:31:12;;;;;;;6.53;3.30;;;0.40;96.80;;;;;;5034776;28;20029;-70
2022/01/10 03:33:40;;;;;;;9.73;3.45;;;0.40;97.10;;;;;;5032545;28;20041;-70
2022/01/10 03:36:09;;;;;;;10.18;2.92;;;0.40;96.90;;;;;;5032820;28;20179;-70
2022/01/10 03:38:37;;;;;;;8.68;3.60;;;0.30;96.70;;;;;;5033060;28;20013;-70
2022/01/10 03:41:05;;;;;;;7.85;3.22;;;0.40;96.70;;;;;;5033186;28;20022;-70
2022/01/10 03:43:32;;;;;;;9.88;4.28;;;0.40;97.00;;;;;;5033677;28;20017;-70
2022/01/10 03:45:58;;;;;;;11.23;4.72;;;0.30;96.90;;;;;;5032940;28;20315;-70
2022/01/10 03:48:24;;;;;;;12.20;4.50;;;0.30;96.50;;;;;;5031948;28;20013;-70
2022/01/10 03:50:50;;;;;;;9.52;4.68;;;0.40;96.20;;;;;;5032687;28;20029;-70
2022/01/10 03:53:16;;;;;;;12.60;5.35;;;0.40;96.40;;;;;;5030522;28;20100;-70
2022/01/10 03:55:42;;;;;;;14.15;5.45;;;0.30;96.20;;;;;;5016017;28;20034;-70
2022/01/10 03:58:11;;;;;;;13.50;4.75;;;0.20;95.80;;;;;;5033315;28;20430;-69
2022/01/10 04:00:40;;;;;;;9.48;4.45;;;0.20;95.40;;;;;;5034550;28;20029;-70
2022/01/10 04:03:07;;;;;;;9.93;3.95;;;0.10;95.50;;;;;;5032846;28;20025;-70
2022/01/10 04:05:34;;;;;;;10.02;4.28;;;0.10;95.00;;;;;;5034224;28;20022;-70
2022/01/10 04:07:59;;;;;;;17.40;6.07;;;0.20;94.90;;;;;;5033886;28;20457;-70
2022/01/10 04:10:25;;;;;;;11.00;4.80;;;0.20;95.30;;;;;;5034279;28;20060;-70
2022/01/10 04:12:53;;;;;;;13.25;5.13;;;0.20;95.00;;;;;;5034135;28;20385;-70
2022/01/10 04:15:19;;;;;;;11.25;4.88;;;0.20;95.50;;;;;;5034959;28;20021;-70
2022/01/10 04:17:45;;;;;;;9.68;4.32;;;0.20;95.30;;;;;;5036611;28;20040;-69
2022/01/10 04:20:14;;;;;;;13.00;4.38;;;0.20;94.90;;;;;;5036235;28;20045;-69
2022/01/10 04:22:42;;;;;;;10.13;4.07;;;0.20;95.00;;;;;;5037664;28;20117;-68
2022/01/10 04:25:11;;;;;;;12.50;5.03;;;0.30;94.60;;;;;;5037875;28;20021;-69
2022/01/10 04:27:39;;;;;;;11.27;4.60;;;0.30;95.10;;;;;;5036426;28;20033;-69
2022/01/10 04:30:05;;;;;;;9.13;4.40;;;0.30;94.60;;;;;;5037235;28;20346;-70
2022/01/10 04:32:32;;;;;;;15.50;5.50;;;0.30;95.30;;;;;;5018684;28;20418;-70
2022/01/10 04:35:02;;;;;;;11.05;4.50;;;0.30;95.60;;;;;;5036539;28;20029;-70
2022/01/10 04:37:29;;;;;;;11.85;4.93;;;0.30;94.70;;;;;;5033398;28;20025;-70
2022/01/10 04:39:54;;;;;;;11.82;5.65;;;0.30;95.20;;;;;;5031190;28;20052;-70
2022/01/10 04:42:20;;;;;;;11.95;5.65;;;0.30;95.10;;;;;;5018013;28;20319;-71
2022/01/10 04:44:45;;;;;;;8.55;4.88;;;0.30;95.30;;;;;;5035148;28;20029;-70
2022/01/10 04:47:11;;;;;;;10.77;5.22;;;0.20;95.00;;;;;;5035799;28;20075;-71
2022/01/10 04:50:03;;;;;;;14.40;5.47;;;0.20;94.80;;;;;;5034187;28;20029;-70
2022/01/10 04:52:27;;;;;;;10.70;5.05;;;0.20;94.80;;;;;;5036925;28;20040;-70
2022/01/10 04:54:53;;;;;;;28.52;13.60;;;0.20;94.60;;;;;;5036023;28;20033;-69
2022/01/10 04:57:18;;;;;;;19.48;9.85;;;0.20;94.40;;;;;;5036977;28;20026;-70
2022/01/10 04:59:47;;;;;;;13.43;7.20;;;0.20;94.20;;;;;;5036028;28;20108;-70
2022/01/10 05:02:12;;;;;;;18.15;9.50;;;0.30;94.10;;;;;;5036173;28;20083;-70
2022/01/10 05:04:43;;;;;;;21.42;11.27;;;0.30;94.40;;;;;;5017460;28;20026;-69
2022/01/10 05:07:09;;;;;;;11.57;5.47;;;0.30;94.10;;;;;;5035827;28;20430;-70
2022/01/10 05:09:35;;;;;;;11.23;5.30;;;0.50;93.40;;;;;;5036708;28;20055;-69
2022/01/10 05:12:01;;;;;;;22.75;10.00;;;0.50;95.10;;;;;;5035623;28;20080;-68
2022/01/10 05:14:26;;;;;;;22.88;11.95;;;0.40;95.20;;;;;;5032708;28;20166;-69
2022/01/10 05:16:52;;;;;;;24.25;12.93;;;0.40;95.10;;;;;;5026462;28;20034;-69
2022/01/10 05:19:18;;;;;;;21.25;10.98;;;0.40;95.00;;;;;;5017394;28;20026;-67
2022/01/10 05:21:45;;;;;;;16.65;9.15;;;0.40;94.90;;;;;;5036110;28;20063;-68
2022/01/10 05:24:13;;;;;;;15.90;9.27;;;0.40;94.70;;;;;;5036354;28;20037;-69
2022/01/10 05:26:39;;;;;;;17.10;7.65;;;0.40;94.60;;;;;;5026284;28;20034;-69
2022/01/10 05:29:05;;;;;;;13.07;6.13;;;0.40;94.90;;;;;;5034240;28;20032;-69
2022/01/10 05:31:34;;;;;;;15.93;5.35;;;0.40;94.90;;;;;;5035869;28;20029;-70
2022/01/10 05:34:00;;;;;;;13.73;6.60;;;0.50;94.80;;;;;;5034653;28;20026;-69
2022/01/10 05:36:26;;;;;;;10.27;6.13;;;0.50;94.70;;;;;;5036454;28;20120;-69
2022/01/10 05:38:52;;;;;;;10.77;6.18;;;0.40;94.80;;;;;;5035452;28;20374;-68
2022/01/10 05:41:20;;;;;;;11.93;6.30;;;0.40;95.00;;;;;;5036461;28;20051;-69
2022/01/10 05:43:50;;;;;;;9.35;5.22;;;0.50;94.90;;;;;;5035280;28;20022;-69
2022/01/10 05:46:20;;;;;;;8.65;5.55;;;0.50;95.00;;;;;;5035742;28;20434;-70
2022/01/10 05:48:48;;;;;;;11.38;6.60;;;0.50;95.00;;;;;;5034354;28;20357;-69
2022/01/10 05:51:17;;;;;;;16.67;8.30;;;0.50;94.60;;;;;;5035550;28;20428;-70
2022/01/10 05:53:43;;;;;;;28.23;15.23;;;0.50;94.90;;;;;;5035835;28;20033;-70
2022/01/10 05:56:09;;;;;;;30.90;15.48;;;0.50;95.00;;;;;;5034845;28;20025;-70
2022/01/10 05:58:34;;;;;;;24.10;13.77;;;0.50;95.00;;;;;;5035830;28;20030;-69
2022/01/10 06:01:00;;;;;;;16.48;9.15;;;0.50;94.90;;;;;;5036711;28;20021;-70
2022/01/10 06:03:26;;;;;;;11.85;6.45;;;0.60;95.10;;;;;;5035085;28;20021;-70
2022/01/10 06:05:51;;;;;;;13.85;7.55;;;0.60;95.00;;;;;;5036858;28;20026;-70
2022/01/10 06:08:20;;;;;;;14.27;7.47;;;0.60;95.50;;;;;;5036616;28;20084;-69
2022/01/10 06:10:46;;;;;;;14.77;6.60;;;0.60;95.90;;;;;;5036990;28;20043;-70
2022/01/10 06:13:12;;;;;;;10.63;5.60;;;0.50;95.80;;;;;;5035340;28;20448;-69
2022/01/10 06:15:38;;;;;;;12.60;7.10;;;0.60;95.00;;;;;;5036584;28;20033;-69
2022/01/10 06:18:04;;;;;;;17.40;9.32;;;0.60;95.70;;;;;;5035298;28;20026;-69
2022/01/10 06:20:30;;;;;;;16.52;10.13;;;0.60;96.00;;;;;;5036395;28;20064;-71
2022/01/10 06:22:55;;;;;;;14.02;8.32;;;0.50;95.90;;;;;;5036815;28;20401;-69
2022/01/10 06:25:23;;;;;;;18.40;9.98;;;0.50;96.00;;;;;;5036390;28;20056;-69
2022/01/10 06:27:49;;;;;;;18.17;9.77;;;0.60;95.90;;;;;;5035618;28;20024;-70
2022/01/10 06:30:15;;;;;;;23.25;12.13;;;0.50;95.80;;;;;;5016689;28;20036;-70
2022/01/10 06:32:41;;;;;;;22.33;11.80;;;0.50;95.50;;;;;;5028497;28;20108;-70
2022/01/10 06:35:07;;;;;;;19.92;11.30;;;0.50;95.70;;;;;;5036507;28;20033;-69
2022/01/10 06:37:33;;;;;;;19.08;11.43;;;0.50;95.60;;;;;;5034571;28;20029;-70
2022/01/10 06:39:58;;;;;;;28.52;16.13;;;0.50;95.60;;;;;;5035420;28;20094;-69
2022/01/10 06:42:24;;;;;;;35.45;22.85;;;0.50;95.60;;;;;;5036170;28;20026;-69
2022/01/10 06:44:50;;;;;;;33.35;20.00;;;0.50;95.70;;;;;;5036111;28;20025;-69
2022/01/10 06:47:16;;;;;;;37.20;22.75;;;0.40;95.50;;;;;;5034566;28;20434;-69
2022/01/10 06:49:44;;;;;;;33.92;18.80;;;0.40;95.60;;;;;;5035326;28;20044;-69
2022/01/10 06:52:10;;;;;;;32.42;18.77;;;0.40;95.20;;;;;;5036229;28;20183;-70
2022/01/10 06:54:35;;;;;;;30.67;16.38;;;0.40;95.40;;;;;;5036246;28;20128;-69
2022/01/10 06:57:02;;;;;;;22.83;14.20;;;0.40;95.40;;;;;;5034898;28;20130;-70
2022/01/10 06:59:28;;;;;;;25.00;15.60;;;0.40;95.50;;;;;;5035762;28;20033;-69
2022/01/10 07:01:56;;;;;;;19.52;12.15;;;0.40;95.40;;;;;;5035749;28;20025;-69
2022/01/10 07:04:23;;;;;;;35.50;19.13;;;0.30;95.30;;;;;;5034860;28;20098;-70
2022/01/10 07:06:52;;;;;;;37.42;18.27;;;0.40;95.10;;;;;;5035722;28;20038;-70
2022/01/10 07:09:23;;;;;;;36.28;19.63;;;0.40;95.20;;;;;;5030201;28;20079;-68
2022/01/10 07:11:49;;;;;;;28.95;20.35;;;0.40;95.10;;;;;;5036000;28;20053;-68
2022/01/10 07:14:16;;;;;;;36.13;22.45;;;0.40;94.60;;;;;;5036028;28;20147;-69
2022/01/10 07:16:42;;;;;;;26.77;16.65;;;0.50;94.90;;;;;;5034833;28;20021;-68
2022/01/10 07:19:11;;;;;;;25.05;14.40;;;0.50;95.50;;;;;;5034343;28;20417;-68
2022/01/10 07:21:40;;;;;;;31.13;15.02;;;0.40;95.10;;;;;;5034515;28;20073;-68
2022/01/10 07:24:07;;;;;;;27.58;17.10;;;0.40;95.40;;;;;;5034739;28;20075;-70
2022/01/10 07:26:33;;;;;;;26.48;17.17;;;0.40;94.90;;;;;;5035578;28;20022;-70
2022/01/10 07:28:59;;;;;;;31.83;16.98;;;0.40;95.60;;;;;;5017344;28;20022;-70
2022/01/10 07:31:25;;;;;;;28.50;15.75;;;0.40;95.60;;;;;;5022588;28;20084;-69
2022/01/10 07:33:51;;;;;;;19.40;11.50;;;0.40;95.30;;;;;;5033020;28;20350;-69
2022/01/10 07:36:16;;;;;;;27.73;13.95;;;0.40;95.50;;;;;;5035191;28;20025;-70
2022/01/10 07:38:42;;;;;;;27.08;16.90;;;0.40;95.30;;;;;;5035233;28;20025;-69
2022/01/10 07:41:08;;;;;;;52.63;33.30;;;0.40;95.40;;;;;;5034657;28;20326;-69
2022/01/10 07:43:35;;;;;;;40.15;26.85;;;0.40;95.00;;;;;;5035561;28;20346;-69
2022/01/10 07:46:01;;;;;;;41.03;28.27;;;0.40;95.20;;;;;;5034976;28;20026;-69
2022/01/10 07:48:30;;;;;;;29.67;21.63;;;0.40;95.30;;;;;;5034470;28;20164;-69
2022/01/10 07:50:56;;;;;;;32.65;21.80;;;0.40;95.00;;;;;;5037396;28;20437;-69
2022/01/10 07:53:21;;;;;;;28.65;17.70;;;0.40;95.30;;;;;;5039140;28;20041;-69
2022/01/10 07:55:53;;;;;;;21.35;13.45;;;0.40;95.10;;;;;;5038497;28;20037;-69
2022/01/10 07:58:23;;;;;;;29.90;17.23;;;0.50;95.00;;;;;;5013978;28;20370;-69
2022/01/10 08:00:49;;;;;;;33.75;17.55;;;0.50;95.30;;;;;;5038883;28;20104;-70
2022/01/10 08:03:15;;;;;;;21.17;13.02;;;0.60;95.00;;;;;;5038175;28;20381;-70
2022/01/10 08:05:40;;;;;;;24.80;14.90;;;0.60;95.20;;;;;;5039146;28;20021;-69
2022/01/10 08:08:06;;;;;;;21.85;14.55;;;0.70;96.10;;;;;;5037095;28;20117;-69
2022/01/10 08:10:32;;;;;;;22.77;14.30;;;0.60;96.30;;;;;;5037993;28;20037;-70
2022/01/10 08:12:57;;;;;;;23.05;13.80;;;0.60;96.40;;;;;;5038772;28;20079;-69
2022/01/10 08:15:23;;;;;;;22.23;12.88;;;0.70;96.80;;;;;;5039122;28;20037;-69
2022/01/10 08:17:49;;;;;;;25.90;14.20;;;0.70;96.60;;;;;;5037247;28;20037;-70
2022/01/10 08:20:18;;;;;;;22.35;15.93;;;0.80;97.00;;;;;;5038762;28;20033;-70
2022/01/10 08:22:43;;;;;;;27.50;14.60;;;0.70;97.60;;;;;;5038307;28;20327;-69
2022/01/10 08:25:12;;;;;;;26.17;14.15;;;0.70;97.80;;;;;;5038898;28;20018;-70
2022/01/10 08:27:38;;;;;;;32.17;20.27;;;0.70;97.70;;;;;;5038525;28;20083;-70
2022/01/10 08:30:05;;;;;;;24.17;15.02;;;0.80;97.40;;;;;;5038750;28;20029;-70
2022/01/10 08:32:30;;;;;;;29.02;17.83;;;0.80;97.90;;;;;;5036744;28;20091;-70
2022/01/10 08:34:56;;;;;;;31.00;16.60;;;0.70;98.00;;;;;;5038462;28;20482;-69
2022/01/10 08:37:22;;;;;;;96.97;44.30;;;0.70;97.60;;;;;;5037988;28;20018;-69
2022/01/10 08:39:49;;;;;;;47.72;25.80;;;0.80;97.70;;;;;;5038725;28;20323;-69
2022/01/10 08:42:19;;;;;;;29.27;18.42;;;0.80;98.00;;;;;;5037656;28;20474;-69
2022/01/10 08:44:46;;;;;;;35.50;21.77;;;0.80;97.70;;;;;;5037447;28;20032;-70
2022/01/10 08:47:12;;;;;;;30.83;18.13;;;0.70;98.00;;;;;;5037982;28;20028;-70
2022/01/10 08:49:38;;;;;;;28.58;15.65;;;0.70;98.00;;;;;;5037154;28;20030;-69
2022/01/10 08:52:04;;;;;;;30.15;18.38;;;0.60;97.60;;;;;;5020059;28;21554;-70
2022/01/10 08:54:30;;;;;;;26.73;17.17;;;0.60;97.30;;;;;;5038430;28;20030;-69
2022/01/10 08:56:55;;;;;;;34.20;18.83;;;0.70;97.30;;;;;;5037905;28;20029;-69
2022/01/10 08:59:21;;;;;;;34.72;20.10;;;0.70;97.40;;;;;;5038247;28;20035;-69
2022/01/10 09:01:47;;;;;;;30.77;17.73;;;0.70;97.10;;;;;;5035890;28;20121;-70
2022/01/10 09:04:16;;;;;;;37.25;21.63;;;0.90;97.00;;;;;;5021406;28;20021;-70
2022/01/10 09:06:46;;;;;;;29.33;17.98;;;1.00;97.50;;;;;;5037900;28;20029;-69
2022/01/10 09:09:12;;;;;;;33.10;19.70;;;1.20;97.60;;;;;;5020659;28;20025;-69
2022/01/10 09:11:39;;;;;;;36.35;21.83;;;1.30;98.00;;;;;;5037560;28;20361;-70
2022/01/10 09:14:05;;;;;;;36.10;18.88;;;1.50;98.00;;;;;;5037833;28;20033;-69
2022/01/10 09:16:31;;;;;;;36.28;20.83;;;1.60;98.00;;;;;;5037958;28;20053;-69
2022/01/10 09:18:57;;;;;;;43.13;21.42;;;1.60;98.00;;;;;;5036400;28;20049;-70
2022/01/10 09:21:23;;;;;;;34.25;18.58;;;1.70;98.00;;;;;;5037370;28;20120;-70
2022/01/10 09:23:49;;;;;;;34.70;19.50;;;1.60;98.00;;;;;;5037787;28;20095;-70
2022/01/10 09:26:14;;;;;;;26.35;16.02;;;1.80;98.00;;;;;;5037394;28;20425;-70
2022/01/10 09:28:42;;;;;;;26.15;16.80;;;1.90;98.00;;;;;;5037890;28;20021;-70
2022/01/10 09:31:09;;;;;;;30.10;18.02;;;1.80;98.00;;;;;;5036390;28;20322;-68
2022/01/10 09:33:35;;;;;;;28.85;15.75;;;1.80;98.00;;;;;;5035288;28;20021;-70
2022/01/10 09:36:01;;;;;;;25.00;14.40;;;1.90;98.00;;;;;;5037444;28;20079;-70
2022/01/10 09:38:27;;;;;;;30.73;15.57;;;2.00;98.00;;;;;;5037396;28;20026;-70
2022/01/10 09:40:54;;;;;;;24.55;12.65;;;2.10;98.00;;;;;;5036890;28;20474;-70
2022/01/10 09:43:20;;;;;;;21.63;13.05;;;2.30;98.00;;;;;;5034872;28;20022;-70
2022/01/10 09:45:46;;;;;;;23.38;14.00;;;2.50;98.00;;;;;;5034384;28;20036;-70
2022/01/10 09:48:12;;;;;;;24.52;13.23;;;2.70;98.00;;;;;;5035435;28;20075;-70
2022/01/10 09:50:37;;;;;;;22.50;12.98;;;3.00;98.00;;;;;;5035628;28;20109;-70
2022/01/10 09:53:04;;;;;;;22.83;15.23;;;2.90;98.00;;;;;;5036713;28;20036;-71
2022/01/10 09:55:32;;;;;;;28.42;16.48;;;3.00;98.00;;;;;;5036952;28;20037;-70
2022/01/10 09:57:58;;;;;;;28.98;15.93;;;3.10;98.00;;;;;;5036401;28;20065;-70
2022/01/10 10:00:27;;;;;;;28.05;16.13;;;3.10;98.00;;;;;;5036527;28;20029;-70
2022/01/10 10:02:52;;;;;;;26.60;14.88;;;2.80;98.00;;;;;;5035312;28;20430;-69
2022/01/10 10:05:22;;;;;;;31.60;17.45;;;2.70;98.00;;;;;;5036506;28;20034;-70
2022/01/10 10:07:48;;;;;;;26.20;16.30;;;2.60;98.00;;;;;;5032061;28;20028;-68
2022/01/10 10:10:14;;;;;;;29.88;17.92;;;2.70;98.00;;;;;;5027316;28;20029;-69
2022/01/10 10:12:42;;;;;;;34.67;19.40;;;2.70;98.00;;;;;;5029098;28;20029;-69
2022/01/10 10:15:11;;;;;;;34.20;18.35;;;2.80;98.00;;;;;;5036526;28;20029;-69
2022/01/10 10:17:41;;;;;;;28.45;16.15;;;2.90;98.00;;;;;;5035493;28;20033;-71
2022/01/10 10:20:08;;;;;;;29.08;15.40;;;3.80;98.00;;;;;;5034892;28;20033;-72
2022/01/10 10:22:34;;;;;;;23.05;14.32;;;4.70;98.00;;;;;;5036035;28;20045;-72
2022/01/10 10:25:00;;;;;;;24.67;16.13;;;5.10;96.90;;;;;;5036113;28;20147;-71
2022/01/10 10:27:25;;;;;;;24.10;15.02;;;5.00;95.90;;;;;;5036110;28;20104;-71
2022/01/10 10:29:51;;;;;;;19.70;11.18;;;5.00;96.50;;;;;;5036127;28;20033;-72
2022/01/10 10:32:28;;;;;;;16.63;9.88;;;5.20;94.30;;;;;;5035764;28;20426;-70
2022/01/10 10:34:57;;;;;;;17.90;8.48;;;5.60;94.20;;;;;;5035613;28;20041;-70
2022/01/10 10:37:22;;;;;;;15.85;9.63;;;5.50;93.00;;;;;;5035970;28;20130;-71
2022/01/10 10:39:48;;;;;;;18.50;9.95;;;5.00;93.60;;;;;;5035370;28;20080;-72
2022/01/10 10:42:15;;;;;;;22.50;11.60;;;4.50;95.10;;;;;;5035831;28;20032;-70
2022/01/10 10:44:42;;;;;;;26.95;16.35;;;4.10;96.30;;;;;;5034607;28;20021;-71
2022/01/10 10:47:10;;;;;;;27.92;17.90;;;3.80;98.00;;;;;;5035677;28;20026;-72
2022/01/10 10:49:44;;;;;;;31.20;20.10;;;3.50;98.00;;;;;;5034734;28;20033;-71
2022/01/10 10:52:12;;;;;;;32.17;20.90;;;3.30;98.00;;;;;;5035967;28;20034;-72
2022/01/10 10:54:39;;;;;;;33.03;18.80;;;3.10;98.00;;;;;;5032211;28;20041;-71
2022/01/10 10:57:07;;;;;;;29.38;18.30;;;3.00;98.00;;;;;;5021332;28;20027;-72
2022/01/10 10:59:36;;;;;;;27.00;18.00;;;3.30;98.00;;;;;;5015000;28;20442;-71
2022/01/10 11:02:04;;;;;;;24.50;14.82;;;3.40;98.00;;;;;;5036045;28;20033;-71
2022/01/10 11:04:31;;;;;;;27.88;16.05;;;3.50;98.00;;;;;;5034039;28;20034;-71
2022/01/10 11:06:58;;;;;;;24.42;13.60;;;3.70;98.00;;;;;;5035431;28;20033;-70
2022/01/10 11:09:23;;;;;;;25.02;14.32;;;3.80;98.00;;;;;;5035822;28;20029;-71
2022/01/10 11:11:49;;;;;;;23.83;12.18;;;3.90;98.00;;;;;;5034320;28;20040;-71
2022/01/10 11:14:17;;;;;;;33.35;15.68;;;4.10;98.00;;;;;;5034619;28;20066;-72
2022/01/10 11:16:45;;;;;;;25.58;13.75;;;4.40;98.00;;;;;;5035645;28;20071;-72
2022/01/10 11:19:15;;;;;;;19.70;12.70;;;4.60;98.00;;;;;;5029528;28;20121;-71
2022/01/10 11:21:46;;;;;;;19.58;12.30;;;4.80;97.30;;;;;;5029515;28;20042;-71
2022/01/10 11:24:11;;;;;;;22.80;13.40;;;4.60;97.00;;;;;;5037404;28;20029;-71
2022/01/10 11:26:39;;;;;;;21.88;11.15;;;4.70;96.70;;;;;;5039433;28;20461;-70
2022/01/10 11:29:09;;;;;;;23.85;13.70;;;4.90;96.10;;;;;;5039673;28;20096;-70
2022/01/10 11:31:39;;;;;;;21.95;11.98;;;4.70;95.70;;;;;;5039531;28;20029;-71
2022/01/10 11:34:05;;;;;;;18.25;9.73;;;4.60;96.80;;;;;;5038384;28;20029;-72
2022/01/10 11:36:31;;;;;;;18.27;8.77;;;4.60;95.00;;;;;;5038947;28;20025;-71
2022/01/10 11:38:59;;;;;;;19.13;9.10;;;4.60;94.80;;;;;;5039294;28;20021;-71
2022/01/10 11:41:31;;;;;;;16.95;9.23;;;4.40;93.70;;;;;;5039351;28;20033;-70
2022/01/10 11:44:07;;;;;;;18.23;10.55;;;4.30;94.60;;;;;;5039579;28;20423;-71
2022/01/10 11:46:35;;;;;;;20.75;12.63;;;4.20;95.30;;;;;;5038505;28;20063;-70
2022/01/10 11:49:20;;;;;;;20.75;12.05;;;4.00;97.50;;;;;;5037430;28;20045;-70
2022/01/10 11:51:52;;;;;;;23.77;12.60;;;3.80;98.00;;;;;;5026715;28;20432;-70
2022/01/10 11:54:26;;;;;;;26.30;13.63;;;3.50;98.00;;;;;;5039150;28;20037;-71
2022/01/10 11:56:54;;;;;;;27.30;15.73;;;3.50;98.00;;;;;;5038916;28;20026;-72
2022/01/10 11:59:27;;;;;;;28.83;14.02;;;3.50;98.00;;;;;;5039014;28;20059;-70
2022/01/10 12:01:59;;;;;;;28.25;16.90;;;3.50;98.00;;;;;;5019607;28;20053;-71
2022/01/10 12:04:29;;;;;;;26.27;14.02;;;3.40;98.00;;;;;;5019433;28;20037;-70
2022/01/10 12:06:55;;;;;;;21.15;13.55;;;3.30;98.00;;;;;;5037918;28;20014;-71
2022/01/10 12:09:22;;;;;;;24.40;13.65;;;3.30;98.00;;;;;;5038395;28;20418;-71
2022/01/10 12:11:51;;;;;;;25.40;15.20;;;3.20;98.00;;;;;;5038744;28;20045;-72
2022/01/10 12:14:18;;;;;;;25.88;15.02;;;3.20;98.00;;;;;;5039183;28;20030;-71
2022/01/10 12:16:44;;;;;;;26.58;15.55;;;3.20;98.00;;;;;;5038383;28;20041;-71
2022/01/10 12:19:13;;;;;;;28.55;16.02;;;3.10;98.00;;;;;;5037066;28;20086;-71
2022/01/10 12:21:39;;;;;;;35.83;18.98;;;3.00;98.00;;;;;;5038495;28;20069;-71
2022/01/10 12:24:07;;;;;;;36.83;20.25;;;2.90;98.00;;;;;;5038749;28;20061;-71
2022/01/10 12:26:33;;;;;;;25.73;14.38;;;2.80;98.00;;;;;;5037958;28;20083;-71
2022/01/10 12:29:00;;;;;;;25.35;16.38;;;2.90;98.00;;;;;;5038888;28;20014;-71
2022/01/10 12:31:28;;;;;;;32.17;17.83;;;2.90;98.00;;;;;;5038261;28;20108;-72
2022/01/10 12:33:55;;;;;;;31.88;16.83;;;2.90;98.00;;;;;;5037569;28;20029;-72
2022/01/10 12:36:23;;;;;;;25.83;16.48;;;2.90;98.00;;;;;;5036838;28;20029;-72
2022/01/10 12:38:58;;;;;;;34.85;19.27;;;2.80;98.00;;;;;;5030493;28;20140;-71
2022/01/10 12:41:27;;;;;;;34.38;17.85;;;2.70;98.00;;;;;;5037993;28;20026;-72
2022/01/10 12:43:55;;;;;;;34.13;17.85;;;2.70;98.00;;;;;;5037002;28;20021;-72
2022/01/10 12:46:22;;;;;;;28.10;15.00;;;2.60;98.00;;;;;;5037965;28;20433;-72
2022/01/10 12:48:50;;;;;;;28.27;15.02;;;2.60;98.00;;;;;;5037120;28;20031;-71
2022/01/10 12:51:17;;;;;;;26.58;14.40;;;2.60;98.00;;;;;;5037075;28;20033;-71